Time;durP1;ratioP1;P1;durP2;ratioP2;P2;SDS_P1;SDS_P2;PMS_P1;PMS_P2;Temp;Humidity;BMP_temperature;BMP_pressure;BME280_temperature;BME280_humidity;BME280_pressure;Samples;Min_cycle;Max_cycle;Signal;HPM_P1;HPM_P2
2024/01/16 00:02:08;;;;;;;0.77;0.77;;;-4.60;90.90;;;;;;5092600;28;20594;-55
2024/01/16 00:04:35;;;;;;;1.58;1.55;;;-4.60;91.00;;;;;;5093692;28;20169;-55
2024/01/16 00:07:01;;;;;;;0.90;0.90;;;-4.60;90.90;;;;;;5093263;28;20241;-54
2024/01/16 00:09:27;;;;;;;2.13;2.03;;;-4.60;90.90;;;;;;5093060;28;20169;-54
2024/01/16 00:11:53;;;;;;;0.60;0.60;;;-4.50;90.70;;;;;;5092919;28;20180;-55
2024/01/16 00:14:18;;;;;;;1.57;1.47;;;-4.60;90.50;;;;;;5093034;28;20194;-55
2024/01/16 00:16:46;;;;;;;0.57;0.57;;;-4.80;90.60;;;;;;5092739;28;20208;-55
2024/01/16 00:19:12;;;;;;;0.70;0.70;;;-4.90;91.10;;;;;;5092077;28;20240;-55
2024/01/16 00:21:41;;;;;;;0.75;0.75;;;-4.70;91.20;;;;;;5092354;28;20252;-55
2024/01/16 00:24:07;;;;;;;0.55;0.55;;;-4.60;90.90;;;;;;5092877;28;20604;-55
2024/01/16 00:26:33;;;;;;;0.57;0.57;;;-4.60;90.60;;;;;;5092021;28;20232;-54
2024/01/16 00:28:59;;;;;;;2.07;1.97;;;-4.60;90.70;;;;;;5091919;28;20422;-55
2024/01/16 00:31:24;;;;;;;1.03;1.03;;;-4.60;90.80;;;;;;5091857;28;20817;-55
2024/01/16 00:33:50;;;;;;;1.00;1.00;;;-4.60;90.60;;;;;;5091997;28;20176;-55
2024/01/16 00:36:16;;;;;;;0.70;0.70;;;-4.60;90.50;;;;;;5091667;28;20204;-55
2024/01/16 00:38:41;;;;;;;0.50;0.50;;;-4.60;90.40;;;;;;5091911;28;20169;-55
2024/01/16 00:41:07;;;;;;;0.50;0.50;;;-4.80;90.40;;;;;;5091683;28;20170;-55
2024/01/16 00:43:35;;;;;;;1.03;1.03;;;-5.00;90.60;;;;;;5091556;28;20546;-55
2024/01/16 00:46:01;;;;;;;0.80;0.80;;;-5.00;91.00;;;;;;5091733;28;20193;-55
2024/01/16 00:48:26;;;;;;;0.60;0.60;;;-4.90;91.00;;;;;;5091878;28;20274;-55
2024/01/16 00:50:52;;;;;;;0.80;0.80;;;-4.90;90.80;;;;;;5091541;28;20588;-55
2024/01/16 00:53:17;;;;;;;0.50;0.50;;;-4.80;90.70;;;;;;5091557;28;20244;-55
2024/01/16 00:55:43;;;;;;;2.10;2.10;;;-4.90;90.60;;;;;;5091754;28;20283;-55
2024/01/16 00:58:09;;;;;;;0.70;0.70;;;-5.00;90.80;;;;;;5091545;28;20188;-55
2024/01/16 01:00:36;;;;;;;0.67;0.67;;;-4.90;91.00;;;;;;5091425;28;20549;-55
2024/01/16 01:03:03;;;;;;;1.48;1.48;;;-4.80;90.40;;;;;;5091269;28;20168;-55
2024/01/16 01:05:29;;;;;;;2.45;1.73;;;-4.80;90.20;;;;;;5091487;28;20690;-54
2024/01/16 01:07:58;;;;;;;0.50;0.50;;;-5.00;90.20;;;;;;5091576;28;20184;-55
2024/01/16 01:10:24;;;;;;;0.50;0.50;;;-5.00;90.50;;;;;;5091562;28;20418;-55
2024/01/16 01:12:52;;;;;;;1.60;1.60;;;-5.10;90.40;;;;;;5091116;28;20169;-55
2024/01/16 01:15:17;;;;;;;0.77;0.77;;;-5.10;90.40;;;;;;5091086;28;20674;-55
2024/01/16 01:17:43;;;;;;;0.70;0.70;;;-5.20;90.40;;;;;;5091523;28;20358;-52
2024/01/16 01:20:09;;;;;;;0.60;0.60;;;-5.30;90.50;;;;;;5091284;28;20180;-50
2024/01/16 01:22:37;;;;;;;0.60;0.60;;;-5.40;90.60;;;;;;5091097;28;20187;-54
2024/01/16 01:25:03;;;;;;;0.65;0.65;;;-5.30;90.60;;;;;;5091152;28;20196;-55
2024/01/16 01:27:28;;;;;;;0.83;0.83;;;-5.30;90.60;;;;;;5091051;28;20169;-55
2024/01/16 01:29:54;;;;;;;0.60;0.60;;;-5.30;90.80;;;;;;5090768;28;20435;-54
2024/01/16 01:32:19;;;;;;;0.63;0.63;;;-5.40;91.00;;;;;;5090959;28;20171;-55
2024/01/16 01:34:45;;;;;;;1.30;1.30;;;-5.40;90.90;;;;;;5090792;28;20265;-54
2024/01/16 01:37:11;;;;;;;0.57;0.57;;;-5.30;90.50;;;;;;5091212;28;20179;-53
2024/01/16 01:39:36;;;;;;;0.80;0.80;;;-5.30;90.40;;;;;;5090974;28;20269;-54
2024/01/16 01:42:02;;;;;;;1.90;1.80;;;-5.40;90.50;;;;;;5090595;28;20603;-54
2024/01/16 01:44:28;;;;;;;0.70;0.70;;;-5.30;90.60;;;;;;5091080;28;20173;-54
2024/01/16 01:46:55;;;;;;;0.60;0.60;;;-5.20;90.50;;;;;;5091057;28;20241;-54
2024/01/16 01:49:22;;;;;;;0.85;0.85;;;-5.20;90.30;;;;;;5090881;28;20650;-54
2024/01/16 01:51:49;;;;;;;0.60;0.60;;;-5.20;90.30;;;;;;5090738;28;20217;-55
2024/01/16 01:54:16;;;;;;;0.47;0.47;;;-5.30;90.30;;;;;;5090792;28;20263;-55
2024/01/16 01:56:44;;;;;;;1.95;1.95;;;-5.40;90.30;;;;;;5090640;28;20285;-55
2024/01/16 01:59:11;;;;;;;0.93;0.93;;;-5.40;90.30;;;;;;5090713;28;20800;-55
2024/01/16 02:01:37;;;;;;;0.57;0.57;;;-5.30;90.30;;;;;;5090779;28;20169;-54
2024/01/16 02:04:04;;;;;;;0.98;0.98;;;-5.30;90.30;;;;;;5091146;28;20188;-55
2024/01/16 02:06:30;;;;;;;0.70;0.70;;;-5.40;90.30;;;;;;5090621;28;20575;-55
2024/01/16 02:08:55;;;;;;;2.13;2.10;;;-5.40;90.30;;;;;;5090616;28;20218;-57
2024/01/16 02:11:21;;;;;;;0.60;0.60;;;-5.50;90.30;;;;;;5090787;28;20197;-57
2024/01/16 02:13:47;;;;;;;1.13;1.13;;;-5.40;90.20;;;;;;5090705;28;20196;-55
2024/01/16 02:16:22;;;;;;;8.37;2.10;;;-5.40;90.10;;;;;;5090456;28;20207;-55
2024/01/16 02:18:49;;;;;;;0.63;0.63;;;-5.50;90.20;;;;;;5090635;28;20645;-55
2024/01/16 02:21:27;;;;;;;0.77;0.77;;;-5.50;90.40;;;;;;5090264;28;20188;-55
2024/01/16 02:23:53;;;;;;;0.70;0.70;;;-5.40;90.30;;;;;;5090775;28;20168;-55
2024/01/16 02:26:19;;;;;;;0.70;0.70;;;-5.40;90.00;;;;;;5090593;28;20197;-55
2024/01/16 02:28:45;;;;;;;0.60;0.60;;;-5.40;89.50;;;;;;5090608;28;20639;-55
2024/01/16 02:31:11;;;;;;;0.50;0.50;;;-5.60;89.40;;;;;;5090299;28;20195;-55
2024/01/16 02:33:37;;;;;;;0.50;0.50;;;-5.70;90.00;;;;;;5090584;28;20411;-55
2024/01/16 02:36:03;;;;;;;1.10;1.10;;;-5.70;90.40;;;;;;5089972;28;20295;-54
2024/01/16 02:38:29;;;;;;;0.60;0.60;;;-5.60;90.30;;;;;;5090387;28;20246;-55
2024/01/16 02:40:54;;;;;;;0.80;0.80;;;-5.60;90.10;;;;;;5090310;28;21078;-55
2024/01/16 02:43:20;;;;;;;0.73;0.73;;;-5.60;90.10;;;;;;5093093;28;20635;-55
2024/01/16 02:45:46;;;;;;;0.67;0.67;;;-5.60;90.10;;;;;;5094436;28;20193;-55
2024/01/16 02:48:12;;;;;;;0.60;0.60;;;-5.60;90.00;;;;;;5093864;28;20673;-55
2024/01/16 02:50:38;;;;;;;0.80;0.80;;;-5.70;89.80;;;;;;5094077;28;20183;-55
2024/01/16 02:53:04;;;;;;;0.60;0.60;;;-5.90;90.00;;;;;;5094163;28;20196;-54
2024/01/16 02:55:29;;;;;;;1.03;1.03;;;-6.00;90.50;;;;;;5093735;28;20232;-55
2024/01/16 02:57:55;;;;;;;0.60;0.60;;;-5.90;90.60;;;;;;5093766;28;20407;-55
2024/01/16 03:00:22;;;;;;;0.57;0.57;;;-5.80;90.60;;;;;;5093600;28;20187;-55
2024/01/16 03:02:48;;;;;;;0.80;0.80;;;-5.80;90.70;;;;;;5092065;28;20218;-55
2024/01/16 03:05:14;;;;;;;0.88;0.88;;;-5.80;90.80;;;;;;5093538;28;20209;-54
2024/01/16 03:07:41;;;;;;;2.53;1.23;;;-5.60;90.50;;;;;;5093580;28;20540;-55
2024/01/16 03:10:06;;;;;;;0.70;0.70;;;-5.50;90.10;;;;;;5093487;28;20410;-55
2024/01/16 03:12:32;;;;;;;1.10;1.10;;;-5.60;89.50;;;;;;5093238;28;20176;-55
2024/01/16 03:14:58;;;;;;;0.70;0.70;;;-5.60;89.60;;;;;;5093176;28;20534;-55
2024/01/16 03:17:24;;;;;;;1.13;1.13;;;-5.70;90.00;;;;;;5093642;28;20415;-55
2024/01/16 03:19:49;;;;;;;0.60;0.60;;;-5.80;90.10;;;;;;5093611;28;20189;-55
2024/01/16 03:22:15;;;;;;;1.77;1.53;;;-5.80;90.30;;;;;;5093060;28;20173;-55
2024/01/16 03:24:40;;;;;;;0.67;0.67;;;-5.70;90.40;;;;;;5093279;28;20608;-55
2024/01/16 03:27:06;;;;;;;0.50;0.50;;;-5.70;90.30;;;;;;5093235;28;20169;-55
2024/01/16 03:29:33;;;;;;;0.70;0.70;;;-5.60;90.30;;;;;;5093108;28;20680;-55
2024/01/16 03:31:59;;;;;;;0.57;0.57;;;-5.70;90.40;;;;;;5093183;28;20173;-55
2024/01/16 03:34:25;;;;;;;0.57;0.57;;;-5.70;90.30;;;;;;5093143;28;20196;-55
2024/01/16 03:36:50;;;;;;;0.90;0.90;;;-5.80;90.10;;;;;;5093015;28;20447;-55
2024/01/16 03:39:16;;;;;;;0.80;0.80;;;-5.80;90.00;;;;;;5093019;28;20587;-55
2024/01/16 03:41:41;;;;;;;0.60;0.60;;;-5.70;89.50;;;;;;5092758;28;20172;-55
2024/01/16 03:44:07;;;;;;;0.60;0.60;;;-5.70;89.50;;;;;;5092855;28;20169;-55
2024/01/16 03:46:33;;;;;;;0.87;0.87;;;-5.70;90.00;;;;;;5092941;28;20201;-55
2024/01/16 03:48:58;;;;;;;0.77;0.77;;;-5.70;89.50;;;;;;5092985;28;20165;-55
2024/01/16 03:51:24;;;;;;;1.33;1.33;;;-5.60;89.30;;;;;;5092817;28;20169;-54
2024/01/16 03:53:49;;;;;;;0.73;0.73;;;-5.60;89.30;;;;;;5092738;28;20183;-55
2024/01/16 03:56:16;;;;;;;2.03;2.03;;;-5.60;89.10;;;;;;5092579;28;20310;-55
2024/01/16 03:58:42;;;;;;;0.75;0.75;;;-5.70;89.60;;;;;;5092463;28;20602;-55
2024/01/16 04:01:08;;;;;;;0.70;0.70;;;-5.80;89.70;;;;;;5091526;28;20200;-55
2024/01/16 04:03:34;;;;;;;0.65;0.65;;;-5.80;90.00;;;;;;5092278;28;20411;-54
2024/01/16 04:06:00;;;;;;;0.63;0.63;;;-5.90;90.30;;;;;;5092484;28;20200;-55
2024/01/16 04:08:26;;;;;;;0.53;0.53;;;-5.80;90.40;;;;;;5092484;28;20225;-55
2024/01/16 04:10:51;;;;;;;0.60;0.60;;;-5.80;90.40;;;;;;5092559;28;20485;-55
2024/01/16 04:13:17;;;;;;;0.60;0.60;;;-5.70;90.50;;;;;;5073961;28;20176;-55
2024/01/16 04:15:43;;;;;;;0.50;0.50;;;-5.70;90.10;;;;;;5092253;28;20562;-54
2024/01/16 04:18:10;;;;;;;0.70;0.70;;;-5.70;90.00;;;;;;5092188;28;20172;-55
2024/01/16 04:20:35;;;;;;;0.40;0.40;;;-5.80;89.80;;;;;;5092604;28;20169;-55
2024/01/16 04:23:01;;;;;;;0.77;0.77;;;-5.80;90.00;;;;;;5092078;28;20173;-50
2024/01/16 04:25:27;;;;;;;0.80;0.80;;;-5.70;90.00;;;;;;5092196;28;20234;-53
2024/01/16 04:27:52;;;;;;;0.90;0.90;;;-5.60;90.20;;;;;;5092148;28;20865;-54
2024/01/16 04:30:20;;;;;;;0.90;0.90;;;-5.50;90.40;;;;;;5091926;28;20197;-53
2024/01/16 04:32:45;;;;;;;0.68;0.68;;;-5.50;90.50;;;;;;5091883;28;20251;-53
2024/01/16 04:35:11;;;;;;;0.60;0.60;;;-5.50;90.30;;;;;;5091765;28;20753;-51
2024/01/16 04:37:37;;;;;;;1.40;1.40;;;-5.60;90.20;;;;;;5092035;28;20161;-55
2024/01/16 04:40:04;;;;;;;0.40;0.40;;;-5.60;90.20;;;;;;5092247;28;20657;-55
2024/01/16 04:42:30;;;;;;;0.70;0.70;;;-5.60;89.90;;;;;;5091697;28;20535;-55
2024/01/16 04:44:55;;;;;;;0.70;0.70;;;-5.60;89.10;;;;;;5091912;28;20218;-55
2024/01/16 04:47:21;;;;;;;1.13;1.13;;;-5.60;88.40;;;;;;5091673;28;20218;-55
2024/01/16 04:49:47;;;;;;;0.63;0.63;;;-5.60;88.30;;;;;;5091775;28;20172;-55
2024/01/16 04:52:13;;;;;;;4.83;2.30;;;-5.70;88.60;;;;;;5091699;28;20630;-55
2024/01/16 04:54:39;;;;;;;1.45;1.05;;;-5.70;89.20;;;;;;5091642;28;20200;-55
2024/01/16 04:57:05;;;;;;;0.70;0.70;;;-5.70;89.60;;;;;;5091909;28;20180;-55
2024/01/16 04:59:30;;;;;;;1.03;1.03;;;-5.80;89.50;;;;;;5091468;28;20165;-55
2024/01/16 05:01:56;;;;;;;0.60;0.60;;;-5.80;90.10;;;;;;5091161;28;20165;-55
2024/01/16 05:04:22;;;;;;;0.70;0.70;;;-5.80;90.10;;;;;;5091276;28;20162;-55
2024/01/16 05:06:51;;;;;;;2.97;2.80;;;-5.80;90.20;;;;;;5091322;28;20270;-55
2024/01/16 05:09:17;;;;;;;0.75;0.75;;;-5.80;90.20;;;;;;5091414;28;20238;-55
2024/01/16 05:11:43;;;;;;;0.77;0.77;;;-5.70;90.30;;;;;;5091147;28;20180;-55
2024/01/16 05:14:09;;;;;;;0.83;0.83;;;-5.70;90.20;;;;;;5091299;28;20165;-53
2024/01/16 05:16:34;;;;;;;0.60;0.60;;;-5.60;90.10;;;;;;5091425;28;20220;-55
2024/01/16 05:19:00;;;;;;;0.67;0.67;;;-5.60;90.10;;;;;;5091571;28;20167;-55
2024/01/16 05:21:25;;;;;;;0.53;0.53;;;-5.60;90.00;;;;;;5091292;28;20608;-55
2024/01/16 05:23:51;;;;;;;0.90;0.90;;;-5.70;90.00;;;;;;5091392;28;20172;-55
2024/01/16 05:26:17;;;;;;;0.70;0.70;;;-5.60;90.00;;;;;;5091625;28;20192;-54
2024/01/16 05:28:42;;;;;;;0.83;0.83;;;-5.50;89.10;;;;;;5091413;28;20543;-55
2024/01/16 05:31:09;;;;;;;0.77;0.77;;;-5.50;88.90;;;;;;5091081;28;20179;-53
2024/01/16 05:33:36;;;;;;;0.50;0.50;;;-5.60;89.00;;;;;;5090980;28;20193;-55
2024/01/16 05:36:02;;;;;;;0.50;0.50;;;-5.60;88.60;;;;;;5110261;22;20862;-53
2024/01/16 05:38:28;;;;;;;1.98;1.88;;;-5.60;88.50;;;;;;5091154;28;20176;-56
2024/01/16 05:40:53;;;;;;;0.50;0.50;;;-5.60;88.60;;;;;;5091072;28;20671;-56
2024/01/16 05:43:19;;;;;;;1.03;1.03;;;-5.70;89.00;;;;;;5091108;28;20172;-56
2024/01/16 05:45:46;;;;;;;0.53;0.53;;;-5.80;89.70;;;;;;5091259;28;20225;-55
2024/01/16 05:48:12;;;;;;;0.52;0.52;;;-5.80;90.10;;;;;;5091272;28;20176;-55
2024/01/16 05:50:38;;;;;;;0.70;0.70;;;-5.80;90.10;;;;;;5091369;28;20530;-56
2024/01/16 05:53:04;;;;;;;0.50;0.50;;;-5.90;89.80;;;;;;5091284;28;20180;-56
2024/01/16 05:55:32;;;;;;;0.53;0.53;;;-5.90;89.80;;;;;;5090866;28;20200;-56
2024/01/16 05:58:01;;;;;;;0.70;0.70;;;-6.00;89.60;;;;;;5091216;28;20415;-56
2024/01/16 06:00:27;;;;;;;1.00;1.00;;;-6.10;89.30;;;;;;5091574;28;20169;-56
2024/01/16 06:02:52;;;;;;;0.70;0.70;;;-6.10;90.00;;;;;;5091133;28;20183;-56
2024/01/16 06:05:18;;;;;;;7.63;1.40;;;-6.00;90.20;;;;;;5085435;28;20180;-56
2024/01/16 06:07:44;;;;;;;5.60;1.47;;;-6.00;90.30;;;;;;5077675;28;20177;-56
2024/01/16 06:10:14;;;;;;;1.00;1.00;;;-5.90;90.40;;;;;;5081209;28;20208;-56
2024/01/16 06:12:40;;;;;;;2.45;2.25;;;-5.80;90.30;;;;;;5080036;28;20921;-56
2024/01/16 06:15:06;;;;;;;0.60;0.60;;;-5.80;89.80;;;;;;5079520;28;20208;-56
2024/01/16 06:17:36;;;;;;;0.70;0.70;;;-5.80;89.50;;;;;;5080400;28;20186;-56
2024/01/16 06:20:02;;;;;;;0.50;0.50;;;-5.80;89.30;;;;;;5062022;28;20234;-54
2024/01/16 06:22:28;;;;;;;1.15;1.05;;;-5.80;89.70;;;;;;5084739;28;20173;-56
2024/01/16 06:24:53;;;;;;;0.73;0.73;;;-5.70;90.00;;;;;;5083829;28;20223;-57
2024/01/16 06:27:19;;;;;;;1.27;1.27;;;-5.70;90.10;;;;;;5083535;28;20193;-55
2024/01/16 06:29:45;;;;;;;0.67;0.67;;;-5.80;89.90;;;;;;5084051;28;20188;-56
2024/01/16 06:32:11;;;;;;;3.05;1.80;;;-5.80;89.70;;;;;;5094704;28;20177;-56
2024/01/16 06:34:37;;;;;;;1.15;1.15;;;-5.80;89.80;;;;;;5085412;28;20294;-57
2024/01/16 06:37:04;;;;;;;0.57;0.57;;;-5.80;89.70;;;;;;5084515;28;20204;-54
2024/01/16 06:39:29;;;;;;;1.95;1.55;;;-5.80;89.70;;;;;;5084543;28;20202;-53
2024/01/16 06:41:56;;;;;;;0.80;0.80;;;-5.80;89.40;;;;;;5080114;28;20196;-53
2024/01/16 06:44:22;;;;;;;0.70;0.70;;;-5.90;89.20;;;;;;5086513;28;20571;-56
2024/01/16 06:46:48;;;;;;;0.93;0.93;;;-5.90;89.10;;;;;;5067209;28;20678;-56
2024/01/16 06:49:15;;;;;;;0.60;0.60;;;-5.90;88.70;;;;;;5083934;28;20442;-57
2024/01/16 06:51:40;;;;;;;0.68;0.68;;;-5.80;88.20;;;;;;5082811;28;20173;-56
2024/01/16 06:54:06;;;;;;;0.67;0.67;;;-5.80;87.90;;;;;;5088789;28;20248;-57
2024/01/16 06:56:32;;;;;;;0.50;0.50;;;-5.90;88.10;;;;;;5083823;28;20697;-57
2024/01/16 06:59:01;;;;;;;0.60;0.60;;;-6.00;88.20;;;;;;5066220;28;20177;-55
2024/01/16 07:01:28;;;;;;;0.50;0.50;;;-6.10;88.70;;;;;;5066198;28;20231;-57
2024/01/16 07:03:54;;;;;;;0.50;0.50;;;-6.00;89.50;;;;;;5083719;28;20211;-57
2024/01/16 07:06:19;;;;;;;0.57;0.57;;;-5.90;89.60;;;;;;5081649;28;20221;-57
2024/01/16 07:08:45;;;;;;;0.67;0.67;;;-5.90;89.00;;;;;;5073497;28;20185;-57
2024/01/16 07:11:13;;;;;;;0.60;0.60;;;-6.00;88.40;;;;;;5073268;28;20177;-57
2024/01/16 07:13:40;;;;;;;0.63;0.63;;;-6.10;88.50;;;;;;5072940;28;20192;-57
2024/01/16 07:16:08;;;;;;;0.70;0.70;;;-6.10;88.80;;;;;;5073584;28;20293;-57
2024/01/16 07:18:34;;;;;;;1.10;1.10;;;-6.00;89.30;;;;;;5073525;28;20253;-57
2024/01/16 07:21:00;;;;;;;0.50;0.50;;;-6.00;89.60;;;;;;5073426;28;20608;-57
2024/01/16 07:23:25;;;;;;;0.60;0.60;;;-6.00;89.90;;;;;;5073214;28;20170;-58
2024/01/16 07:25:51;;;;;;;0.70;0.70;;;-5.90;90.00;;;;;;5073318;28;20352;-57
2024/01/16 07:28:17;;;;;;;0.80;0.80;;;-5.90;90.10;;;;;;5073058;28;20539;-55
2024/01/16 07:30:42;;;;;;;0.43;0.43;;;-5.80;89.30;;;;;;5073012;28;20199;-57
2024/01/16 07:33:08;;;;;;;0.60;0.60;;;-5.70;89.00;;;;;;5073095;28;20169;-56
2024/01/16 07:35:33;;;;;;;0.73;0.73;;;-5.70;89.00;;;;;;5072727;28;20579;-56
2024/01/16 07:37:59;;;;;;;0.90;0.90;;;-5.60;89.40;;;;;;5073050;28;20170;-56
2024/01/16 07:40:25;;;;;;;0.60;0.60;;;-5.60;89.00;;;;;;5072875;28;20173;-56
2024/01/16 07:42:51;;;;;;;0.60;0.60;;;-5.60;88.70;;;;;;5073157;28;20708;-56
2024/01/16 07:45:17;;;;;;;0.50;0.50;;;-5.70;88.30;;;;;;5073066;28;20186;-55
2024/01/16 07:47:42;;;;;;;0.43;0.43;;;-5.70;88.20;;;;;;5073085;28;20183;-56
2024/01/16 07:50:08;;;;;;;0.53;0.53;;;-5.80;87.90;;;;;;5054893;28;20586;-56
2024/01/16 07:52:34;;;;;;;0.60;0.60;;;-5.80;88.20;;;;;;5072511;28;20591;-56
2024/01/16 07:54:59;;;;;;;0.50;0.50;;;-5.60;88.30;;;;;;5072562;28;20455;-56
2024/01/16 07:57:25;;;;;;;1.40;1.40;;;-5.50;87.40;;;;;;5072830;28;20199;-56
2024/01/16 07:59:50;;;;;;;1.10;1.10;;;-5.40;87.20;;;;;;5073026;28;20223;-56
2024/01/16 08:02:17;;;;;;;0.80;0.80;;;-5.40;87.10;;;;;;5072474;28;20595;-55
2024/01/16 08:04:42;;;;;;;0.63;0.63;;;-5.40;87.20;;;;;;5072595;28;20193;-56
2024/01/16 08:07:08;;;;;;;1.33;1.33;;;-5.40;87.70;;;;;;5072402;28;20575;-59
2024/01/16 08:09:35;;;;;;;0.63;0.63;;;-5.40;88.10;;;;;;5072308;28;20185;-57
2024/01/16 08:12:02;;;;;;;0.50;0.50;;;-5.20;88.30;;;;;;5072186;28;20740;-57
2024/01/16 08:14:28;;;;;;;0.50;0.50;;;-4.90;88.30;;;;;;5072433;28;20189;-57
2024/01/16 08:16:54;;;;;;;2.88;0.90;;;-4.00;88.40;;;;;;5072316;28;20324;-57
2024/01/16 08:19:20;;;;;;;0.50;0.50;;;-2.30;89.60;;;;;;5072260;28;20249;-57
2024/01/16 08:21:45;;;;;;;0.50;0.50;;;-0.70;83.80;;;;;;5072388;28;20554;-56
2024/01/16 08:24:11;;;;;;;4.17;3.87;;;0.80;78.40;;;;;;5072164;28;20177;-57
2024/01/16 08:26:36;;;;;;;12.63;4.60;;;2.20;72.60;;;;;;5072085;28;20278;-54
2024/01/16 08:29:02;;;;;;;11.70;8.93;;;3.40;68.50;;;;;;5072106;28;20195;-57
2024/01/16 08:31:28;;;;;;;2.40;2.10;;;4.50;63.80;;;;;;5071852;28;20179;-53
2024/01/16 08:33:55;;;;;;;1.53;1.43;;;5.30;58.90;;;;;;5071902;28;20669;-58
2024/01/16 08:36:21;;;;;;;0.90;0.90;;;6.00;56.00;;;;;;5071560;28;20517;-57
2024/01/16 08:38:47;;;;;;;3.33;1.97;;;6.10;54.40;;;;;;5071764;28;20174;-56
2024/01/16 08:41:13;;;;;;;2.07;1.97;;;5.80;53.00;;;;;;5071207;28;20210;-56
2024/01/16 08:43:38;;;;;;;2.17;1.70;;;5.60;52.80;;;;;;5072085;28;20204;-59
2024/01/16 08:46:04;;;;;;;0.73;0.73;;;5.70;52.90;;;;;;5085866;28;20204;-58
2024/01/16 08:48:30;;;;;;;4.90;1.33;;;5.80;52.80;;;;;;5092064;28;20192;-58
2024/01/16 08:50:55;;;;;;;1.23;0.97;;;5.80;52.10;;;;;;5091927;28;20165;-57
2024/01/16 08:53:23;;;;;;;8.13;4.37;;;5.50;50.90;;;;;;5091640;28;20173;-57
2024/01/16 08:55:49;;;;;;;4.00;3.45;;;5.10;51.20;;;;;;5091821;28;20341;-57
2024/01/16 08:58:15;;;;;;;3.73;2.47;;;4.90;51.80;;;;;;5091691;28;20359;-57
2024/01/16 09:00:40;;;;;;;1.67;1.00;;;4.80;50.70;;;;;;5091487;28;20717;-57
2024/01/16 09:03:07;;;;;;;2.13;1.30;;;4.40;51.10;;;;;;5075518;28;20180;-57
2024/01/16 09:05:36;;;;;;;1.63;0.75;;;4.30;52.10;;;;;;5071347;28;20516;-57
2024/01/16 09:08:02;;;;;;;1.98;1.88;;;4.50;53.00;;;;;;5071468;28;20200;-57
2024/01/16 09:10:29;;;;;;;0.70;0.70;;;4.70;52.00;;;;;;5071219;28;20642;-58
2024/01/16 09:12:55;;;;;;;4.65;1.00;;;4.90;51.70;;;;;;5071341;28;20289;-57
2024/01/16 09:15:20;;;;;;;3.63;1.87;;;5.00;51.70;;;;;;5071206;28;20228;-54
2024/01/16 09:17:46;;;;;;;2.33;2.00;;;5.10;52.90;;;;;;5071334;28;20177;-51
2024/01/16 09:20:12;;;;;;;1.00;1.00;;;5.60;53.20;;;;;;5071203;28;20181;-55
2024/01/16 09:22:37;;;;;;;2.17;2.03;;;6.40;51.50;;;;;;5071086;28;20248;-56
2024/01/16 09:25:03;;;;;;;2.70;2.40;;;7.30;51.10;;;;;;5070705;28;20173;-58
2024/01/16 09:27:29;;;;;;;2.50;2.20;;;8.30;50.00;;;;;;5070326;28;20219;-62
2024/01/16 09:29:55;;;;;;;1.60;1.10;;;9.10;47.50;;;;;;5070752;28;20814;-54
2024/01/16 09:32:20;;;;;;;6.33;3.07;;;9.80;46.50;;;;;;5070988;28;20174;-58
2024/01/16 09:34:46;;;;;;;2.90;2.70;;;10.00;44.40;;;;;;5088812;28;20196;-58
2024/01/16 09:37:14;;;;;;;2.90;2.10;;;9.80;44.60;;;;;;5090698;28;20236;-58
2024/01/16 09:39:43;;;;;;;2.50;2.13;;;9.90;45.10;;;;;;5091101;28;20202;-58
2024/01/16 09:42:11;;;;;;;3.00;2.73;;;10.30;43.40;;;;;;5091359;28;20403;-58
2024/01/16 09:44:37;;;;;;;3.43;1.77;;;10.20;42.90;;;;;;5091196;28;20407;-59
2024/01/16 09:47:07;;;;;;;4.70;3.83;;;10.40;42.80;;;;;;5091099;28;20449;-59
2024/01/16 09:49:33;;;;;;;4.40;2.80;;;11.20;42.90;;;;;;5091100;28;20639;-59
2024/01/16 09:52:01;;;;;;;3.07;1.77;;;12.40;40.40;;;;;;5093596;28;20404;-59
2024/01/16 09:54:27;;;;;;;1.60;1.50;;;13.10;39.20;;;;;;5095352;28;20186;-59
2024/01/16 09:56:56;;;;;;;2.67;2.47;;;13.70;38.00;;;;;;5095265;28;20429;-58
2024/01/16 09:59:22;;;;;;;1.30;1.20;;;13.80;36.70;;;;;;5095112;28;20644;-59
2024/01/16 10:01:54;;;;;;;3.20;2.37;;;13.10;35.10;;;;;;5094915;28;20494;-57
2024/01/16 10:04:20;;;;;;;1.90;1.80;;;12.30;36.00;;;;;;5095155;28;20398;-58
2024/01/16 10:06:46;;;;;;;2.50;1.87;;;11.00;37.60;;;;;;5094917;28;20865;-58
2024/01/16 10:09:12;;;;;;;4.37;3.13;;;10.10;38.60;;;;;;5095100;28;20242;-58
2024/01/16 10:11:38;;;;;;;2.30;1.10;;;8.90;40.70;;;;;;5094712;28;20897;-58
2024/01/16 10:14:04;;;;;;;2.07;1.50;;;7.90;42.60;;;;;;5094975;28;20178;-59
2024/01/16 10:16:59;;;;;;;1.35;1.25;;;7.00;44.70;;;;;;5094675;28;20458;-57
2024/01/16 10:19:27;;;;;;;4.47;2.30;;;6.00;46.60;;;;;;5094969;28;20180;-58
2024/01/16 10:22:00;;;;;;;1.40;1.30;;;5.00;48.40;;;;;;5094539;28;20164;-57
2024/01/16 10:24:26;;;;;;;1.83;1.73;;;4.60;50.00;;;;;;5094747;28;20245;-55
2024/01/16 10:27:00;;;;;;;3.20;3.00;;;4.30;51.90;;;;;;5094586;28;20192;-57
2024/01/16 10:29:25;;;;;;;3.67;2.90;;;4.00;53.00;;;;;;5094890;28;20205;-57
2024/01/16 10:31:51;;;;;;;6.60;3.20;;;3.80;53.90;;;;;;5094368;28;20261;-58
2024/01/16 10:34:24;;;;;;;1.10;1.10;;;4.10;55.30;;;;;;5094599;28;20218;-58
2024/01/16 10:36:54;;;;;;;3.47;2.50;;;4.30;55.20;;;;;;5094473;28;20201;-58
2024/01/16 10:39:20;;;;;;;1.85;1.85;;;4.50;55.20;;;;;;5094418;28;20539;-57
2024/01/16 10:41:57;;;;;;;2.17;1.52;;;4.60;55.40;;;;;;5094139;28;20704;-57
2024/01/16 10:44:22;;;;;;;1.58;1.50;;;4.50;55.60;;;;;;5094332;28;20638;-58
2024/01/16 10:46:48;;;;;;;1.17;1.13;;;4.30;55.80;;;;;;5094444;28;20197;-57
2024/01/16 10:49:14;;;;;;;1.43;1.40;;;4.00;56.40;;;;;;5094258;28;20411;-57
2024/01/16 10:51:43;;;;;;;2.70;2.50;;;3.80;57.10;;;;;;5094034;28;20407;-57
2024/01/16 10:54:13;;;;;;;1.63;1.55;;;3.70;57.90;;;;;;5094086;28;20172;-56
2024/01/16 10:56:44;;;;;;;2.05;1.95;;;3.60;58.60;;;;;;5086643;28;20217;-56
2024/01/16 10:59:21;;;;;;;1.52;1.40;;;3.60;59.20;;;;;;5078429;28;20166;-55
2024/01/16 11:01:53;;;;;;;1.27;1.27;;;3.60;59.50;;;;;;5092959;28;20200;-57
2024/01/16 11:04:20;;;;;;;13.68;2.90;;;3.50;60.20;;;;;;5088162;28;20587;-56
2024/01/16 11:06:47;;;;;;;1.75;1.60;;;3.40;61.40;;;;;;5055471;28;20619;-55
2024/01/16 11:09:16;;;;;;;1.48;1.27;;;3.50;62.20;;;;;;5073562;28;20282;-56
2024/01/16 11:11:46;;;;;;;1.48;1.48;;;3.70;62.60;;;;;;5073211;28;20193;-57
2024/01/16 11:14:14;;;;;;;1.88;0.95;;;4.00;62.50;;;;;;5089612;28;20199;-56
2024/01/16 11:16:42;;;;;;;4.90;4.10;;;4.30;62.30;;;;;;5093741;28;20200;-57
2024/01/16 11:19:11;;;;;;;2.58;1.52;;;4.50;61.10;;;;;;5093712;28;20197;-57
2024/01/16 11:21:39;;;;;;;3.42;3.15;;;4.70;60.60;;;;;;5093563;28;20171;-57
2024/01/16 11:24:05;;;;;;;8.13;4.97;;;4.70;60.20;;;;;;5093842;28;20166;-57
2024/01/16 11:26:36;;;;;;;3.80;3.10;;;4.60;60.10;;;;;;5093842;28;20201;-57
2024/01/16 11:29:28;;;;;;;2.42;2.22;;;4.40;60.10;;;;;;5093779;28;20994;-57
2024/01/16 11:31:55;;;;;;;6.07;3.78;;;4.70;61.30;;;;;;5064968;28;20190;-56
2024/01/16 11:34:55;;;;;;;5.25;2.35;;;4.80;60.40;;;;;;5073653;28;20653;-57
2024/01/16 11:37:28;;;;;;;2.60;1.30;;;4.80;60.20;;;;;;5134445;22;20224;-61
2024/01/16 11:40:21;;;;;;;2.08;1.58;;;4.90;60.90;;;;;;5114112;28;20645;-62
2024/01/16 11:42:49;;;;;;;4.60;2.33;;;5.10;60.10;;;;;;5113976;28;20168;-61
2024/01/16 11:45:30;;;;;;;3.17;2.97;;;5.10;60.20;;;;;;5095691;28;20614;-61
2024/01/16 11:48:12;;;;;;;2.50;2.38;;;4.80;59.90;;;;;;5093502;28;20176;-61
2024/01/16 11:50:38;;;;;;;2.78;2.58;;;4.20;61.00;;;;;;5093328;28;20260;-61
2024/01/16 11:53:04;;;;;;;9.50;4.00;;;3.80;62.30;;;;;;5093257;28;20172;-61
2024/01/16 11:55:32;;;;;;;3.23;3.00;;;3.70;63.60;;;;;;5093390;28;20550;-60
2024/01/16 11:58:37;;;;;;;4.32;2.47;;;3.80;64.00;;;;;;5092801;28;20169;-60
2024/01/16 12:01:05;;;;;;;5.97;3.45;;;4.00;64.10;;;;;;5093086;28;20181;-61
2024/01/16 12:03:30;;;;;;;1.95;1.00;;;3.90;63.70;;;;;;5093081;28;20165;-61
2024/01/16 12:05:59;;;;;;;1.87;1.77;;;4.00;63.60;;;;;;5092292;28;20645;-60
2024/01/16 12:08:26;;;;;;;5.40;2.33;;;3.70;63.40;;;;;;5078131;28;20443;-60
2024/01/16 12:10:51;;;;;;;5.60;5.13;;;3.60;63.90;;;;;;5072536;28;20655;-61
2024/01/16 12:13:17;;;;;;;4.13;3.73;;;3.60;64.90;;;;;;5072705;28;20192;-61
2024/01/16 12:15:43;;;;;;;7.50;4.37;;;3.50;65.50;;;;;;5071483;28;20233;-61
2024/01/16 12:18:09;;;;;;;4.82;4.43;;;3.50;65.80;;;;;;5072868;28;20430;-61
2024/01/16 12:20:37;;;;;;;2.55;1.10;;;3.40;66.10;;;;;;5072542;28;20631;-60
2024/01/16 12:23:07;;;;;;;3.03;1.67;;;3.20;66.50;;;;;;5073135;28;20173;-62
2024/01/16 12:25:34;;;;;;;1.85;1.75;;;3.00;67.60;;;;;;5073038;28;20216;-61
2024/01/16 12:28:07;;;;;;;2.88;1.75;;;2.90;68.60;;;;;;5072526;28;20256;-61
2024/01/16 12:30:34;;;;;;;8.90;2.08;;;2.80;69.30;;;;;;5072512;28;20182;-61
2024/01/16 12:33:10;;;;;;;1.10;0.82;;;2.70;69.90;;;;;;5072239;28;20294;-63
2024/01/16 12:35:37;;;;;;;1.42;1.42;;;2.50;70.50;;;;;;5072233;28;20607;-60
2024/01/16 12:38:11;;;;;;;2.47;1.50;;;2.40;71.30;;;;;;5076454;28;20204;-60
2024/01/16 12:40:40;;;;;;;1.63;1.23;;;2.30;72.10;;;;;;5091978;28;20169;-60
2024/01/16 12:43:06;;;;;;;1.00;0.90;;;2.20;72.00;;;;;;5092364;28;20190;-61
2024/01/16 12:45:33;;;;;;;1.45;1.35;;;2.10;72.50;;;;;;5092505;28;20187;-60
2024/01/16 12:48:03;;;;;;;0.98;0.73;;;2.10;73.00;;;;;;5092429;28;20642;-61
2024/01/16 12:50:29;;;;;;;1.77;1.67;;;1.90;73.30;;;;;;5092248;28;20192;-60